This is the latest recevied weather packets stored in our database for station/object AE6EO. If no packets are shown the sender has not sent any weather packets the latest 10 day(s).
| Time | Temp. | Humidity | Pressure | Rain* | Wind** | Luminosity | Snow |
|---|---|---|---|---|---|---|---|
| 1777539917 | 12.22° C | 84% | 1016.8 hPa | 0 mm | - | - | - |
| 1777539315 | 12.22° C | 84% | 1016.9 hPa | 0 mm | - | - | - |
| 1777533916 | 13.33° C | 79% | 1017.5 hPa | 0 mm | - | - | - |
| 1777531519 | 13.33° C | 79% | 1017.7 hPa | 0 mm | - | - | - |
| 1777530317 | 13.33° C | 78% | 1017.7 hPa | 0 mm | - | - | - |
| 1777529715 | 13.33° C | 76% | 1017.7 hPa | 0 mm | - | - | - |
| 1777529118 | 13.33° C | 76% | 1017.7 hPa | 0 mm | - | - | - |
| 1777527916 | 13.33° C | 75% | 1017.7 hPa | 0 mm | - | - | - |
| 1777527315 | 13.89° C | 73% | 1017.7 hPa | 0 mm | - | - | - |
| 1777526717 | 13.89° C | 72% | 1017.6 hPa | 0 mm | - | - | - |
| 1777520717 | 16.11° C | 65% | 1017.3 hPa | 0 mm | - | - | - |
| 1777517716 | 17.78° C | 61% | 1016.7 hPa | 0 mm | - | - | - |
| 1777511739 | 21.67° C | 52% | 1016.3 hPa | 0 mm | - | - | - |
| 1777509318 | 22.78° C | 48% | 1016.2 hPa | 0 mm | - | - | - |
| 1777506916 | 23.33° C | 51% | 1016.2 hPa | 0 mm | - | - | - |
| 1777500317 | 22.78° C | 59% | 1017.3 hPa | 0 mm | - | - | - |
| 1777499117 | 22.78° C | 59% | 1017.5 hPa | 0 mm | - | - | - |
| 1777496717 | 22.78° C | 55% | 1017.6 hPa | 0 mm | - | - | - |
| 1777493735 | 22.78° C | 51% | 1017.8 hPa | 0 mm | - | - | - |
| 1777492516 | 22.22° C | 53% | 1018.1 hPa | 0 mm | - | - | - |
| 1777486516 | 20° C | 64% | 1019.2 hPa | 0 mm | - | - | - |
| 1777472119 | 10° C | 90% | 1019.6 hPa | 0 mm | - | - | - |
| 1777465517 | 8.89° C | 89% | 1019.1 hPa | 0 mm | - | - | - |
| 1777463717 | 9.44° C | 88% | 1019.4 hPa | 0 mm | - | - | - |
| 1777461918 | 10° C | 88% | 1019.6 hPa | 0 mm | - | - | - |
* Rain latest hour (hover to see other rain measurements)
** Current wind speed in m/s (hover to see current wind gust speed)